Wetterdaten: Woche 15.08.16 - 21.08.16 (KW33)
Datum Zeit Temp. A. Feuchte A. Luftdruck Regen Wind Richtung Taupunkt Windchill Windben
15.08.2016 00:00 20,3 C 77 % 1018,8 hPa 0,0 l/m 0,4 km/h N 16,1 C 20,3 C 4,0 km/h
15.08.2016 01:00 20,3 C 78 % 1018,9 hPa 0,0 l/m 0,2 km/h N 16,3 C 20,3 C 3,2 km/h
15.08.2016 02:00 20,3 C 79 % 1019,0 hPa 0,0 l/m 0,5 km/h N 16,4 C 20,3 C 6,0 km/h
15.08.2016 03:00 19,8 C 79 % 1019,2 hPa 0,0 l/m 1,9 km/h N 16,0 C 19,8 C 9,3 km/h
15.08.2016 04:00 19,2 C 78 % 1019,4 hPa 0,0 l/m 2,0 km/h N 15,3 C 19,2 C 8,0 km/h
15.08.2016 05:00 18,9 C 78 % 1019,8 hPa 0,0 l/m 3,8 km/h N 15,0 C 18,9 C 12,1 km/h
15.08.2016 06:00 18,5 C 79 % 1020,2 hPa 0,0 l/m 1,1 km/h N 14,7 C 18,5 C 7,2 km/h
15.08.2016 07:00 18,6 C 78 % 1020,4 hPa 0,0 l/m 1,6 km/h N 14,8 C 18,6 C 8,5 km/h
15.08.2016 08:00 19,8 C 76 % 1020,4 hPa 0,0 l/m 3,3 km/h N 15,3 C 19,8 C 11,7 km/h
15.08.2016 09:00 21,4 C 71 % 1020,6 hPa 0,0 l/m 1,5 km/h N 15,9 C 21,4 C 8,4 km/h
15.08.2016 10:00 22,8 C 67 % 1020,4 hPa 0,0 l/m 1,8 km/h N 16,2 C 22,8 C 12,5 km/h
15.08.2016 11:00 23,8 C 64 % 1020,1 hPa 0,0 l/m 2,3 km/h N 16,5 C 23,8 C 10,9 km/h
15.08.2016 12:00 24,3 C 60 % 1019,6 hPa 0,0 l/m 3,1 km/h N 16,0 C 24,3 C 12,5 km/h
15.08.2016 13:00 24,6 C 60 % 1019,4 hPa 0,0 l/m 2,0 km/h N 16,1 C 24,6 C 12,1 km/h
15.08.2016 14:00 24,3 C 59 % 1019,1 hPa 0,0 l/m 1,0 km/h N 15,6 C 24,3 C 6,4 km/h
15.08.2016 15:00 23,9 C 59 % 1019,0 hPa 0,0 l/m 0,7 km/h N 15,3 C 23,9 C 6,4 km/h
15.08.2016 16:00 24,0 C 56 % 1018,9 hPa 0,0 l/m 0,8 km/h N 14,6 C 24,0 C 6,8 km/h
15.08.2016 17:00 24,2 C 56 % 1018,5 hPa 0,0 l/m 0,5 km/h N 14,9 C 24,2 C 4,0 km/h
15.08.2016 18:00 24,2 C 57 % 1018,0 hPa 0,0 l/m 0,2 km/h N 15,0 C 24,2 C 2,8 km/h
15.08.2016 19:00 23,7 C 62 % 1017,8 hPa 0,0 l/m 0,2 km/h N 15,8 C 23,7 C 3,2 km/h
15.08.2016 20:00 22,1 C 67 % 1017,9 hPa 0,0 l/m 0,0 km/h N 15,6 C 22,1 C 0,8 km/h
15.08.2016 21:00 19,7 C 75 % 1018,1 hPa 0,0 l/m 0,4 km/h N 15,2 C 19,7 C 3,2 km/h
15.08.2016 22:00 18,5 C 79 % 1018,2 hPa 0,0 l/m 0,1 km/h N 14,9 C 18,5 C 1,6 km/h
15.08.2016 23:00 17,8 C 81 % 1018,0 hPa 0,0 l/m 0,0 km/h N 14,4 C 17,8 C 0,4 km/h
16.08.2016 00:00 16,7 C 81 % 1017,8 hPa 0,0 l/m 0,0 km/h N 13,5 C 16,7 C 0,4 km/h
16.08.2016 01:00 16,3 C 82 % 1018,0 hPa 0,0 l/m 0,0 km/h N 13,2 C 16,3 C 0,8 km/h
16.08.2016 02:00 16,3 C 82 % 1017,7 hPa 0,0 l/m 0,0 km/h N 13,2 C 16,3 C 0,0 km/h
16.08.2016 03:00 15,8 C 82 % 1017,4 hPa 0,0 l/m 0,0 km/h N 12,7 C 15,8 C 0,4 km/h
16.08.2016 04:00 15,1 C 82 % 1017,0 hPa 0,0 l/m 0,0 km/h N 12,1 C 15,1 C 0,0 km/h
16.08.2016 05:00 14,9 C 82 % 1016,9 hPa 0,0 l/m 0,0 km/h N 11,9 C 14,9 C 0,8 km/h
16.08.2016 06:00 14,8 C 82 % 1016,9 hPa 0,0 l/m 0,0 km/h N 11,8 C 14,8 C 0,4 km/h
16.08.2016 07:00 15,2 C 82 % 1017,0 hPa 0,0 l/m 0,0 km/h N 12,2 C 15,2 C 1,6 km/h
16.08.2016 08:00 17,1 C 82 % 1017,0 hPa 0,0 l/m 0,5 km/h N 14,0 C 17,1 C 4,4 km/h
16.08.2016 09:00 18,9 C 79 % 1016,9 hPa 0,0 l/m 1,8 km/h N 15,2 C 18,9 C 8,4 km/h
16.08.2016 10:00 21,0 C 72 % 1016,7 hPa 0,0 l/m 0,8 km/h N 15,8 C 21,0 C 6,4 km/h
16.08.2016 11:00 22,4 C 68 % 1016,3 hPa 0,0 l/m 1,0 km/h N 16,2 C 22,4 C 7,2 km/h
16.08.2016 12:00 23,8 C 65 % 1015,8 hPa 0,0 l/m 0,4 km/h N 16,8 C 23,8 C 5,6 km/h
16.08.2016 13:00 24,4 C 62 % 1015,3 hPa 0,0 l/m 0,6 km/h N 16,7 C 24,4 C 6,4 km/h
16.08.2016 14:00 25,5 C 58 % 1014,8 hPa 0,0 l/m 0,5 km/h N 16,6 C 25,5 C 5,6 km/h
16.08.2016 15:00 24,8 C 58 % 1014,0 hPa 0,0 l/m 0,5 km/h N 15,9 C 24,8 C 5,6 km/h
16.08.2016 16:00 25,0 C 56 % 1013,4 hPa 0,0 l/m 0,5 km/h N 15,6 C 25,0 C 5,6 km/h
16.08.2016 17:00 25,0 C 58 % 1013,1 hPa 0,0 l/m 1,3 km/h N 16,1 C 25,0 C 8,0 km/h
16.08.2016 18:00 23,9 C 60 % 1012,0 hPa 0,0 l/m 0,2 km/h N 15,7 C 23,9 C 4,8 km/h
16.08.2016 19:00 23,4 C 62 % 1011,9 hPa 0,0 l/m 0,0 km/h N 15,6 C 23,4 C 0,4 km/h
16.08.2016 20:00 21,8 C 68 % 1011,8 hPa 0,0 l/m 1,1 km/h N 15,7 C 21,8 C 6,9 km/h
16.08.2016 21:00 20,3 C 76 % 1011,7 hPa 0,0 l/m 0,6 km/h N 15,9 C 20,3 C 3,6 km/h
16.08.2016 22:00 19,3 C 80 % 1011,4 hPa 0,0 l/m 0,2 km/h N 15,7 C 19,3 C 4,0 km/h
16.08.2016 23:00 18,6 C 81 % 1011,0 hPa 0,0 l/m 0,1 km/h N 15,2 C 18,6 C 1,6 km/h
17.08.2016 00:00 18,1 C 82 % 1011,2 hPa 0,0 l/m 0,0 km/h N 15,0 C 18,1 C 1,6 km/h
17.08.2016 01:00 17,8 C 82 % 1010,8 hPa 0,0 l/m 0,0 km/h N 14,6 C 17,8 C 0,8 km/h
17.08.2016 02:00 17,5 C 81 % 1010,3 hPa 0,0 l/m 1,8 km/h N 14,2 C 17,5 C 9,6 km/h
17.08.2016 03:00 17,6 C 77 % 1010,3 hPa 0,0 l/m 2,3 km/h N 13,4 C 17,6 C 10,1 km/h
17.08.2016 04:00 17,3 C 77 % 1010,7 hPa 0,0 l/m 2,5 km/h N 13,2 C 17,3 C 11,3 km/h
17.08.2016 05:00 17,0 C 77 % 1011,0 hPa 0,0 l/m 2,3 km/h N 12,9 C 17,0 C 11,3 km/h
17.08.2016 06:00 16,3 C 77 % 1011,4 hPa 0,0 l/m 2,8 km/h N 12,3 C 16,3 C 10,5 km/h
17.08.2016 07:00 16,5 C 74 % 1011,7 hPa 0,0 l/m 2,5 km/h N 11,9 C 16,5 C 11,7 km/h
17.08.2016 08:00 17,2 C 71 % 1012,1 hPa 0,0 l/m 7,0 km/h N 11,8 C 16,8 C 16,1 km/h
17.08.2016 09:00 18,0 C 70 % 1012,1 hPa 0,0 l/m 4,2 km/h N 12,4 C 18,0 C 14,5 km/h
17.08.2016 10:00 19,5 C 64 % 1012,2 hPa 0,0 l/m 6,7 km/h N 12,5 C 19,4 C 19,3 km/h
17.08.2016 11:00 20,0 C 61 % 1012,3 hPa 0,0 l/m 5,6 km/h N 12,2 C 20,1 C 20,9 km/h
17.08.2016 12:00 21,0 C 58 % 1012,3 hPa 0,0 l/m 4,8 km/h N 12,4 C 21,0 C 16,1 km/h
17.08.2016 13:00 21,0 C 55 % 1012,4 hPa 0,0 l/m 4,4 km/h N 11,5 C 21,0 C 15,6 km/h
17.08.2016 14:00 21,7 C 53 % 1012,2 hPa 0,0 l/m 5,7 km/h N 11,7 C 21,6 C 18,9 km/h
17.08.2016 15:00 22,4 C 51 % 1011,7 hPa 0,0 l/m 3,3 km/h N 11,7 C 22,4 C 14,5 km/h
17.08.2016 16:00 22,4 C 50 % 1011,4 hPa 0,0 l/m 3,6 km/h N 11,4 C 22,4 C 12,5 km/h
17.08.2016 17:00 22,4 C 48 % 1011,1 hPa 0,0 l/m 3,4 km/h N 10,9 C 22,4 C 10,9 km/h
17.08.2016 18:00 22,2 C 49 % 1011,1 hPa 0,0 l/m 1,1 km/h N 10,8 C 22,2 C 6,8 km/h
17.08.2016 19:00 21,6 C 53 % 1011,2 hPa 0,0 l/m 0,1 km/h N 11,5 C 21,6 C 1,6 km/h
17.08.2016 20:00 19,2 C 61 % 1011,7 hPa 0,0 l/m 0,0 km/h N 11,3 C 19,2 C 0,0 km/h
17.08.2016 21:00 16,9 C 70 % 1012,2 hPa 0,0 l/m 0,0 km/h N 11,4 C 16,9 C 0,0 km/h
17.08.2016 22:00 15,4 C 75 % 1012,3 hPa 0,0 l/m 0,0 km/h N 10,9 C 15,4 C 0,0 km/h
17.08.2016 23:00 14,1 C 78 % 1012,2 hPa 0,0 l/m 0,0 km/h N 10,2 C 14,1 C 0,0 km/h
18.08.2016 00:00 13,2 C 80 % 1011,9 hPa 0,0 l/m 0,0 km/h N 9,8 C 13,2 C 0,0 km/h
18.08.2016 01:00 12,5 C 82 % 1011,5 hPa 0,0 l/m 0,0 km/h N 9,4 C 12,5 C 0,0 km/h
18.08.2016 02:00 11,9 C 82 % 1011,0 hPa 0,0 l/m 0,0 km/h N 9,0 C 11,9 C 0,0 km/h
18.08.2016 03:00 11,4 C 83 % 1010,6 hPa 0,0 l/m 0,0 km/h N 8,6 C 11,4 C 0,0 km/h
18.08.2016 04:00 11,2 C 83 % 1010,3 hPa 0,0 l/m 0,0 km/h N 8,3 C 11,2 C 0,8 km/h
18.08.2016 05:00 11,0 C 83 % 1010,3 hPa 0,0 l/m 0,0 km/h N 8,2 C 11,0 C 0,0 km/h
18.08.2016 06:00 11,1 C 83 % 1010,5 hPa 0,0 l/m 0,0 km/h N 8,3 C 11,1 C 0,0 km/h
18.08.2016 07:00 12,1 C 82 % 1010,4 hPa 0,0 l/m 0,0 km/h N 9,2 C 12,1 C 0,5 km/h
18.08.2016 08:00 14,4 C 82 % 1010,4 hPa 0,0 l/m 0,0 km/h N 11,3 C 14,4 C 0,8 km/h
18.08.2016 09:00 16,9 C 80 % 1010,6 hPa 0,0 l/m 0,1 km/h N 13,4 C 16,9 C 2,4 km/h
18.08.2016 10:00 20,0 C 71 % 1010,5 hPa 0,0 l/m 0,0 km/h N 14,6 C 20,0 C 2,0 km/h
18.08.2016 11:00 22,2 C 66 % 1010,4 hPa 0,0 l/m 0,2 km/h N 15,4 C 22,2 C 3,2 km/h
18.08.2016 12:00 23,3 C 59 % 1010,0 hPa 0,0 l/m 0,8 km/h N 14,6 C 23,3 C 5,6 km/h
18.08.2016 13:00 25,2 C 50 % 1009,8 hPa 0,0 l/m 0,0 km/h N 13,8 C 25,2 C 4,0 km/h
18.08.2016 14:00 26,2 C 46 % 1009,3 hPa 0,0 l/m 0,0 km/h N 13,5 C 26,2 C 4,0 km/h
18.08.2016 15:00 25,6 C 46 % 1009,0 hPa 0,0 l/m 0,0 km/h N 13,1 C 25,6 C 7,2 km/h
18.08.2016 16:00 25,5 C 46 % 1008,6 hPa 0,0 l/m 0,0 km/h N 12,8 C 25,5 C 4,8 km/h
18.08.2016 17:00 24,0 C 63 % 1008,6 hPa 0,0 l/m 4,0 km/h N 16,3 C 24,0 C 20,9 km/h
18.08.2016 18:00 22,5 C 69 % 1008,6 hPa 0,0 l/m 3,2 km/h N 16,5 C 22,5 C 12,1 km/h
18.08.2016 19:00 22,0 C 69 % 1008,8 hPa 0,0 l/m 2,4 km/h N 15,9 C 22,0 C 10,5 km/h
18.08.2016 20:00 20,7 C 72 % 1009,2 hPa 0,0 l/m 0,0 km/h N 15,5 C 20,7 C 2,4 km/h
18.08.2016 21:00 19,5 C 78 % 1009,3 hPa 0,0 l/m 0,0 km/h N 15,5 C 19,5 C 5,7 km/h
18.08.2016 22:00 18,9 C 79 % 1009,9 hPa 0,0 l/m 0,0 km/h N 15,2 C 18,9 C 0,0 km/h
18.08.2016 23:00 17,7 C 79 % 1010,0 hPa 0,0 l/m 0,0 km/h N 14,0 C 17,7 C 0,8 km/h
19.08.2016 00:00 16,4 C 80 % 1010,3 hPa 0,0 l/m 0,0 km/h N 12,9 C 16,4 C 0,0 km/h
19.08.2016 01:00 15,2 C 81 % 1010,3 hPa 0,0 l/m 0,0 km/h N 12,0 C 15,2 C 1,6 km/h
19.08.2016 02:00 14,3 C 82 % 1010,3 hPa 0,0 l/m 0,0 km/h N 11,3 C 14,3 C 0,8 km/h
19.08.2016 03:00 14,0 C 82 % 1010,2 hPa 0,0 l/m 0,0 km/h N 11,0 C 14,0 C 1,6 km/h
19.08.2016 04:00 14,5 C 82 % 1010,2 hPa 0,0 l/m 0,0 km/h N 11,5 C 14,5 C 5,6 km/h
19.08.2016 05:00 14,8 C 82 % 1010,5 hPa 0,0 l/m 0,0 km/h N 11,7 C 14,8 C 0,0 km/h
19.08.2016 06:00 14,8 C 82 % 1010,7 hPa 0,0 l/m 0,0 km/h N 11,7 C 14,8 C 0,0 km/h
19.08.2016 07:00 15,3 C 82 % 1011,1 hPa 0,0 l/m 0,0 km/h N 12,2 C 15,3 C 0,4 km/h
19.08.2016 08:00 16,8 C 82 % 1011,6 hPa 0,0 l/m 0,0 km/h N 13,7 C 16,8 C 1,2 km/h
19.08.2016 09:00 18,3 C 81 % 1012,0 hPa 0,0 l/m 0,0 km/h N 15,1 C 18,3 C 0,8 km/h
19.08.2016 10:00 19,6 C 79 % 1012,1 hPa 0,0 l/m 0,1 km/h N 15,9 C 19,6 C 1,6 km/h
19.08.2016 11:00 22,9 C 67 % 1012,2 hPa 0,0 l/m 0,4 km/h N 16,4 C 22,9 C 4,8 km/h
19.08.2016 12:00 24,1 C 63 % 1012,0 hPa 0,0 l/m 0,6 km/h N 16,5 C 24,1 C 5,6 km/h
19.08.2016 13:00 24,8 C 62 % 1012,2 hPa 0,0 l/m 0,2 km/h N 16,8 C 24,8 C 4,0 km/h
19.08.2016 14:00 23,4 C 71 % 1012,5 hPa 0,3 l/m 0,4 km/h N 17,7 C 23,4 C 4,0 km/h
19.08.2016 15:00 23,3 C 71 % 1012,1 hPa 0,0 l/m 0,2 km/h N 17,8 C 23,3 C 3,6 km/h
19.08.2016 16:00 24,4 C 62 % 1011,9 hPa 0,0 l/m 0,4 km/h N 16,7 C 24,4 C 4,0 km/h
19.08.2016 17:00 24,8 C 60 % 1011,8 hPa 0,0 l/m 0,4 km/h N 16,5 C 24,8 C 6,0 km/h
19.08.2016 18:00 24,6 C 61 % 1011,9 hPa 0,0 l/m 2,0 km/h N 16,7 C 24,6 C 11,3 km/h
19.08.2016 19:00 23,5 C 65 % 1012,0 hPa 0,0 l/m 0,6 km/h N 16,6 C 23,5 C 6,4 km/h
19.08.2016 20:00 21,6 C 69 % 1012,3 hPa 0,0 l/m 0,0 km/h N 15,7 C 21,6 C 0,8 km/h
19.08.2016 21:00 19,0 C 75 % 1013,1 hPa 0,0 l/m 0,0 km/h N 14,6 C 19,0 C 0,0 km/h
19.08.2016 22:00 17,4 C 79 % 1013,4 hPa 0,0 l/m 0,0 km/h N 13,8 C 17,4 C 0,0 km/h
19.08.2016 23:00 16,3 C 81 % 1013,7 hPa 0,0 l/m 0,0 km/h N 13,1 C 16,3 C 0,0 km/h
20.08.2016 00:00 15,5 C 82 % 1013,8 hPa 0,0 l/m 0,0 km/h N 12,4 C 15,5 C 0,0 km/h
20.08.2016 01:00 15,0 C 82 % 1013,8 hPa 0,0 l/m 0,0 km/h N 12,0 C 15,0 C 0,0 km/h
20.08.2016 02:00 14,7 C 82 % 1013,7 hPa 0,0 l/m 0,0 km/h N 11,6 C 14,7 C 0,0 km/h
20.08.2016 03:00 14,0 C 82 % 1013,6 hPa 0,0 l/m 0,0 km/h N 11,0 C 14,0 C 0,0 km/h
20.08.2016 04:00 13,5 C 82 % 1013,8 hPa 0,0 l/m 0,0 km/h N 10,5 C 13,5 C 0,0 km/h
20.08.2016 05:00 13,0 C 83 % 1013,8 hPa 0,0 l/m 0,0 km/h N 10,2 C 13,0 C 0,0 km/h
20.08.2016 06:00 12,9 C 83 % 1014,1 hPa 0,0 l/m 0,0 km/h N 10,0 C 12,9 C 0,0 km/h
20.08.2016 07:00 14,4 C 82 % 1014,8 hPa 0,0 l/m 0,0 km/h N 11,3 C 14,4 C 0,8 km/h
20.08.2016 08:00 16,6 C 81 % 1015,0 hPa 0,0 l/m 0,0 km/h N 13,3 C 16,6 C 2,0 km/h
20.08.2016 09:00 17,8 C 81 % 1015,4 hPa 0,0 l/m 0,0 km/h N 14,5 C 17,8 C 1,6 km/h
20.08.2016 10:00 19,6 C 82 % 1015,5 hPa 0,0 l/m 0,1 km/h N 16,3 C 19,6 C 3,2 km/h
20.08.2016 11:00 23,0 C 75 % 1015,4 hPa 0,0 l/m 0,2 km/h N 18,3 C 23,0 C 2,8 km/h
20.08.2016 12:00 25,8 C 65 % 1015,1 hPa 0,0 l/m 0,5 km/h N 18,5 C 25,8 C 5,2 km/h
20.08.2016 13:00 27,6 C 55 % 1014,6 hPa 0,0 l/m 1,0 km/h N 17,7 C 27,6 C 6,0 km/h
20.08.2016 14:00 28,6 C 55 % 1014,2 hPa 0,0 l/m 0,9 km/h N 18,6 C 28,6 C 7,2 km/h
20.08.2016 15:00 28,7 C 54 % 1013,8 hPa 0,0 l/m 1,4 km/h N 18,4 C 28,7 C 10,4 km/h
20.08.2016 16:00 28,2 C 56 % 1013,5 hPa 0,0 l/m 1,9 km/h N 18,6 C 28,2 C 8,9 km/h
20.08.2016 17:00 27,9 C 59 % 1013,3 hPa 0,0 l/m 1,7 km/h N 19,0 C 27,9 C 8,0 km/h
20.08.2016 18:00 27,3 C 61 % 1013,3 hPa 0,0 l/m 1,5 km/h N 19,0 C 27,3 C 8,4 km/h
20.08.2016 19:00 26,4 C 62 % 1013,4 hPa 0,0 l/m 0,9 km/h N 18,5 C 26,4 C 7,6 km/h
20.08.2016 20:00 24,8 C 68 % 1013,5 hPa 0,0 l/m 0,5 km/h N 18,4 C 24,8 C 5,6 km/h
20.08.2016 21:00 23,7 C 72 % 1013,7 hPa 0,0 l/m 0,3 km/h N 18,4 C 23,7 C 6,0 km/h
20.08.2016 22:00 22,8 C 76 % 1013,5 hPa 0,0 l/m 0,1 km/h N 18,3 C 22,8 C 2,4 km/h
20.08.2016 23:00 21,7 C 78 % 1013,1 hPa 0,0 l/m 0,0 km/h N 17,7 C 21,7 C 0,4 km/h
21.08.2016 00:00 20,5 C 80 % 1013,0 hPa 0,0 l/m 0,0 km/h N 16,9 C 20,5 C 0,0 km/h
21.08.2016 01:00 19,9 C 81 % 1012,9 hPa 0,0 l/m 0,0 km/h N 16,6 C 19,9 C 0,0 km/h
21.08.2016 02:00 19,9 C 81 % 1012,9 hPa 0,0 l/m 0,0 km/h N 16,5 C 19,9 C 0,0 km/h
21.08.2016 03:00 20,2 C 81 % 1013,0 hPa 0,0 l/m 0,0 km/h N 16,8 C 20,2 C 0,8 km/h
21.08.2016 04:00 20,2 C 81 % 1013,2 hPa 0,0 l/m 0,0 km/h N 16,8 C 20,2 C 0,4 km/h
21.08.2016 05:00 20,1 C 81 % 1013,4 hPa 0,0 l/m 0,1 km/h N 16,7 C 20,1 C 2,8 km/h
21.08.2016 06:00 20,6 C 80 % 1013,6 hPa 0,0 l/m 0,9 km/h N 16,9 C 20,6 C 8,0 km/h
21.08.2016 07:00 20,5 C 80 % 1014,5 hPa 4,7 l/m 2,8 km/h N 16,9 C 20,5 C 12,5 km/h
21.08.2016 08:00 19,2 C 82 % 1015,5 hPa 14,6 l/m 0,7 km/h N 16,0 C 19,2 C 7,3 km/h
21.08.2016 09:00 18,7 C 82 % 1016,2 hPa 5,7 l/m 0,8 km/h N 15,5 C 18,7 C 6,8 km/h
21.08.2016 10:00 16,7 C 82 % 1016,9 hPa 3,6 l/m 9,7 km/h N 13,6 C 15,2 C 29,4 km/h
21.08.2016 11:00 16,1 C 82 % 1017,5 hPa 1,0 l/m 8,5 km/h N 13,0 C 15,1 C 26,5 km/h
21.08.2016 12:00 16,8 C 82 % 1017,7 hPa 0,0 l/m 7,4 km/h N 13,7 C 16,1 C 20,5 km/h
21.08.2016 13:00 18,1 C 78 % 1017,6 hPa 0,0 l/m 10,4 km/h N 14,2 C 16,4 C 27,8 km/h
21.08.2016 14:00 19,0 C 75 % 1017,8 hPa 0,0 l/m 8,5 km/h N 14,5 C 18,1 C 21,3 km/h
21.08.2016 15:00 20,1 C 71 % 1017,6 hPa 0,0 l/m 9,0 km/h N 14,7 C 19,1 C 22,9 km/h
21.08.2016 16:00 21,0 C 67 % 1017,7 hPa 0,0 l/m 9,9 km/h N 14,6 C 19,8 C 28,2 km/h
21.08.2016 17:00 20,5 C 67 % 1018,0 hPa 0,0 l/m 8,5 km/h N 14,2 C 19,7 C 23,7 km/h
21.08.2016 18:00 19,7 C 67 % 1018,3 hPa 0,0 l/m 9,3 km/h N 13,4 C 18,6 C 24,9 km/h
21.08.2016 19:00 19,0 C 71 % 1018,5 hPa 0,0 l/m 10,2 km/h N 13,6 C 17,5 C 27,8 km/h
21.08.2016 20:00 18,0 C 74 % 1019,6 hPa 0,5 l/m 11,3 km/h N 13,3 C 16,1 C 26,1 km/h
21.08.2016 21:00 16,3 C 81 % 1020,5 hPa 2,6 l/m 4,1 km/h N 13,1 C 16,3 C 16,1 km/h
21.08.2016 22:00 16,0 C 82 % 1020,8 hPa 1,0 l/m 2,5 km/h N 13,0 C 16,0 C 11,7 km/h
21.08.2016 23:00 16,2 C 82 % 1020,6 hPa 0,3 l/m 4,9 km/h N 13,1 C 15,7 C 16,5 km/h
Min-Datum _ 18.08.16 18.08.16 18.08.16 - 15.08.16 - 18.08.16 18.08.16 15.08.16
_ Min-Zeit 05:45 14:00 18:00 - 00:00 - 05:30 05:30 20:15
Minimum _ 10,8 C 45 % 1008,4 hPa - 0,0 km/h - 8,1 C 10,9 C 0,0 km/h
Max-Datum _ 20.08.16 18.08.16 21.08.16 21.08.16 21.08.16 - 20.08.16 20.08.16 21.08.16
_ Max-Zeit 14:45 03:15 22:45 08:15 20:15 - 17:15 14:45 10:30
Maximum _ 29,1 C 83 % 1020,9 hPa 14,6 l/m 14,3 km/h
N
- 19,5 C 29,1 C 35,4 km/h
N
Durchschnitt _ 19,7 C 72 % 1014,0 hPa #34,3 l/m 1,5 km/h N 14,3 C 19,6 C 6,5 km/h